sensor_id;sensor_type;location;lat;lon;timestamp;P1;durP1;ratioP1;P2;durP2;ratioP2
4748;SDS011;2388;53.582;9.962;2023-08-12T00:01:22;4.77;;;2.60;;
4748;SDS011;2388;53.582;9.962;2023-08-12T00:03:49;4.90;;;3.00;;
4748;SDS011;2388;53.582;9.962;2023-08-12T00:06:15;4.40;;;2.50;;
4748;SDS011;2388;53.582;9.962;2023-08-12T00:08:41;4.23;;;2.70;;
4748;SDS011;2388;53.582;9.962;2023-08-12T00:11:06;2.83;;;2.40;;
4748;SDS011;2388;53.582;9.962;2023-08-12T00:13:32;3.80;;;2.33;;
4748;SDS011;2388;53.582;9.962;2023-08-12T00:15:57;2.67;;;2.57;;
4748;SDS011;2388;53.582;9.962;2023-08-12T00:18:23;4.33;;;2.50;;
4748;SDS011;2388;53.582;9.962;2023-08-12T00:20:48;4.70;;;2.60;;
4748;SDS011;2388;53.582;9.962;2023-08-12T00:23:14;5.63;;;2.57;;
4748;SDS011;2388;53.582;9.962;2023-08-12T00:25:39;2.60;;;2.40;;
4748;SDS011;2388;53.582;9.962;2023-08-12T00:28:05;7.13;;;3.03;;
4748;SDS011;2388;53.582;9.962;2023-08-12T00:30:30;4.33;;;2.77;;
4748;SDS011;2388;53.582;9.962;2023-08-12T00:32:56;4.70;;;2.50;;
4748;SDS011;2388;53.582;9.962;2023-08-12T00:35:21;8.13;;;2.90;;
4748;SDS011;2388;53.582;9.962;2023-08-12T00:37:47;3.13;;;2.77;;
4748;SDS011;2388;53.582;9.962;2023-08-12T00:40:12;2.93;;;2.60;;
4748;SDS011;2388;53.582;9.962;2023-08-12T00:42:38;2.73;;;2.50;;
4748;SDS011;2388;53.582;9.962;2023-08-12T00:45:06;3.23;;;2.80;;
4748;SDS011;2388;53.582;9.962;2023-08-12T00:47:35;2.73;;;2.53;;
4748;SDS011;2388;53.582;9.962;2023-08-12T00:50:02;5.93;;;2.50;;
4748;SDS011;2388;53.582;9.962;2023-08-12T00:52:28;2.80;;;2.10;;
4748;SDS011;2388;53.582;9.962;2023-08-12T00:54:53;3.03;;;2.43;;
4748;SDS011;2388;53.582;9.962;2023-08-12T00:57:19;7.37;;;2.53;;
4748;SDS011;2388;53.582;9.962;2023-08-12T00:59:45;3.37;;;2.40;;
4748;SDS011;2388;53.582;9.962;2023-08-12T01:02:11;5.77;;;2.73;;
4748;SDS011;2388;53.582;9.962;2023-08-12T01:04:37;2.30;;;2.10;;
4748;SDS011;2388;53.582;9.962;2023-08-12T01:07:03;5.67;;;2.83;;
4748;SDS011;2388;53.582;9.962;2023-08-12T01:09:28;3.17;;;2.87;;
4748;SDS011;2388;53.582;9.962;2023-08-12T01:11:57;2.87;;;2.67;;
4748;SDS011;2388;53.582;9.962;2023-08-12T01:17:30;3.50;;;2.37;;
4748;SDS011;2388;53.582;9.962;2023-08-12T01:19:57;6.97;;;2.40;;
4748;SDS011;2388;53.582;9.962;2023-08-12T01:22:24;4.57;;;2.60;;
4748;SDS011;2388;53.582;9.962;2023-08-12T01:24:52;3.03;;;2.73;;
4748;SDS011;2388;53.582;9.962;2023-08-12T01:27:17;3.90;;;2.40;;
4748;SDS011;2388;53.582;9.962;2023-08-12T01:29:46;4.23;;;2.90;;
4748;SDS011;2388;53.582;9.962;2023-08-12T01:32:19;5.00;;;2.77;;
4748;SDS011;2388;53.582;9.962;2023-08-12T01:35:20;2.03;;;1.87;;
4748;SDS011;2388;53.582;9.962;2023-08-12T01:37:54;2.83;;;2.30;;
4748;SDS011;2388;53.582;9.962;2023-08-12T01:40:22;3.87;;;2.70;;
4748;SDS011;2388;53.582;9.962;2023-08-12T01:42:49;2.70;;;2.60;;
4748;SDS011;2388;53.582;9.962;2023-08-12T01:45:17;2.43;;;2.23;;
4748;SDS011;2388;53.582;9.962;2023-08-12T01:47:43;3.83;;;2.30;;
4748;SDS011;2388;53.582;9.962;2023-08-12T01:50:09;2.03;;;1.93;;
4748;SDS011;2388;53.582;9.962;2023-08-12T01:52:35;4.53;;;2.50;;
4748;SDS011;2388;53.582;9.962;2023-08-12T01:55:00;2.80;;;2.60;;
4748;SDS011;2388;53.582;9.962;2023-08-12T01:57:26;2.50;;;2.30;;
4748;SDS011;2388;53.582;9.962;2023-08-12T01:59:51;3.07;;;2.70;;
4748;SDS011;2388;53.582;9.962;2023-08-12T02:02:17;2.83;;;2.63;;
4748;SDS011;2388;53.582;9.962;2023-08-12T02:04:42;2.77;;;2.57;;
4748;SDS011;2388;53.582;9.962;2023-08-12T02:07:09;3.33;;;3.03;;
4748;SDS011;2388;53.582;9.962;2023-08-12T02:09:35;2.60;;;2.20;;
4748;SDS011;2388;53.582;9.962;2023-08-12T02:12:00;2.83;;;2.73;;
4748;SDS011;2388;53.582;9.962;2023-08-12T02:14:26;2.90;;;2.70;;
4748;SDS011;2388;53.582;9.962;2023-08-12T02:16:51;5.53;;;2.60;;
4748;SDS011;2388;53.582;9.962;2023-08-12T02:19:17;5.33;;;3.43;;
4748;SDS011;2388;53.582;9.962;2023-08-12T02:21:42;2.97;;;2.67;;
4748;SDS011;2388;53.582;9.962;2023-08-12T02:24:08;3.20;;;2.90;;
4748;SDS011;2388;53.582;9.962;2023-08-12T02:26:34;3.00;;;2.60;;
4748;SDS011;2388;53.582;9.962;2023-08-12T02:29:00;2.67;;;2.47;;
4748;SDS011;2388;53.582;9.962;2023-08-12T02:31:25;3.67;;;2.60;;
4748;SDS011;2388;53.582;9.962;2023-08-12T02:33:51;3.73;;;3.30;;
4748;SDS011;2388;53.582;9.962;2023-08-12T02:36:16;3.77;;;2.53;;
4748;SDS011;2388;53.582;9.962;2023-08-12T02:38:42;4.80;;;3.30;;
4748;SDS011;2388;53.582;9.962;2023-08-12T02:41:07;4.70;;;3.23;;
4748;SDS011;2388;53.582;9.962;2023-08-12T02:43:33;4.93;;;2.40;;
4748;SDS011;2388;53.582;9.962;2023-08-12T02:45:58;2.40;;;2.30;;
4748;SDS011;2388;53.582;9.962;2023-08-12T02:48:24;2.93;;;2.73;;
4748;SDS011;2388;53.582;9.962;2023-08-12T02:50:49;4.20;;;2.47;;
4748;SDS011;2388;53.582;9.962;2023-08-12T02:53:15;2.57;;;2.37;;
4748;SDS011;2388;53.582;9.962;2023-08-12T02:55:41;3.93;;;2.77;;
4748;SDS011;2388;53.582;9.962;2023-08-12T02:58:06;3.00;;;2.70;;
4748;SDS011;2388;53.582;9.962;2023-08-12T03:00:32;3.17;;;2.97;;
4748;SDS011;2388;53.582;9.962;2023-08-12T03:02:57;3.60;;;2.50;;
4748;SDS011;2388;53.582;9.962;2023-08-12T03:05:23;2.70;;;2.50;;
4748;SDS011;2388;53.582;9.962;2023-08-12T03:07:49;3.00;;;2.80;;
4748;SDS011;2388;53.582;9.962;2023-08-12T03:10:17;2.93;;;2.67;;
4748;SDS011;2388;53.582;9.962;2023-08-12T03:12:42;2.37;;;2.27;;
4748;SDS011;2388;53.582;9.962;2023-08-12T03:15:08;2.73;;;2.10;;
4748;SDS011;2388;53.582;9.962;2023-08-12T03:17:34;3.57;;;2.90;;
4748;SDS011;2388;53.582;9.962;2023-08-12T03:19:59;2.53;;;1.90;;
4748;SDS011;2388;53.582;9.962;2023-08-12T03:22:27;3.30;;;2.60;;
4748;SDS011;2388;53.582;9.962;2023-08-12T03:24:52;3.63;;;2.07;;
4748;SDS011;2388;53.582;9.962;2023-08-12T03:27:18;2.33;;;2.23;;
4748;SDS011;2388;53.582;9.962;2023-08-12T03:29:43;2.20;;;2.00;;
4748;SDS011;2388;53.582;9.962;2023-08-12T03:32:09;2.77;;;2.50;;
4748;SDS011;2388;53.582;9.962;2023-08-12T03:34:34;2.67;;;2.47;;
4748;SDS011;2388;53.582;9.962;2023-08-12T03:37:00;3.83;;;2.33;;
4748;SDS011;2388;53.582;9.962;2023-08-12T03:39:25;7.40;;;2.37;;
4748;SDS011;2388;53.582;9.962;2023-08-12T03:41:51;2.47;;;2.27;;
4748;SDS011;2388;53.582;9.962;2023-08-12T03:44:17;2.00;;;1.90;;
4748;SDS011;2388;53.582;9.962;2023-08-12T03:46:43;5.83;;;2.40;;
4748;SDS011;2388;53.582;9.962;2023-08-12T03:49:09;2.50;;;2.40;;
4748;SDS011;2388;53.582;9.962;2023-08-12T03:51:34;3.20;;;2.67;;
4748;SDS011;2388;53.582;9.962;2023-08-12T03:54:00;2.47;;;2.20;;
4748;SDS011;2388;53.582;9.962;2023-08-12T03:56:25;2.93;;;2.57;;
4748;SDS011;2388;53.582;9.962;2023-08-12T03:58:51;3.07;;;2.87;;
4748;SDS011;2388;53.582;9.962;2023-08-12T04:01:16;2.97;;;2.80;;
4748;SDS011;2388;53.582;9.962;2023-08-12T04:03:42;6.43;;;2.83;;
4748;SDS011;2388;53.582;9.962;2023-08-12T04:06:07;7.87;;;3.10;;
4748;SDS011;2388;53.582;9.962;2023-08-12T04:08:33;6.70;;;3.83;;
4748;SDS011;2388;53.582;9.962;2023-08-12T04:10:59;2.60;;;2.40;;
4748;SDS011;2388;53.582;9.962;2023-08-12T04:13:25;9.70;;;4.17;;
4748;SDS011;2388;53.582;9.962;2023-08-12T04:15:50;7.73;;;7.03;;
4748;SDS011;2388;53.582;9.962;2023-08-12T04:18:18;8.00;;;6.20;;
4748;SDS011;2388;53.582;9.962;2023-08-12T04:20:44;5.67;;;4.57;;
4748;SDS011;2388;53.582;9.962;2023-08-12T04:23:11;3.57;;;3.20;;
4748;SDS011;2388;53.582;9.962;2023-08-12T04:25:37;2.83;;;2.63;;
4748;SDS011;2388;53.582;9.962;2023-08-12T04:28:03;6.27;;;3.47;;
4748;SDS011;2388;53.582;9.962;2023-08-12T04:30:29;4.10;;;3.00;;
4748;SDS011;2388;53.582;9.962;2023-08-12T04:32:54;4.60;;;2.97;;
4748;SDS011;2388;53.582;9.962;2023-08-12T04:35:20;4.53;;;3.00;;
4748;SDS011;2388;53.582;9.962;2023-08-12T04:37:45;3.87;;;3.00;;
4748;SDS011;2388;53.582;9.962;2023-08-12T04:40:10;3.27;;;2.97;;
4748;SDS011;2388;53.582;9.962;2023-08-12T04:42:36;5.57;;;3.10;;
4748;SDS011;2388;53.582;9.962;2023-08-12T04:45:02;4.03;;;3.03;;
4748;SDS011;2388;53.582;9.962;2023-08-12T04:47:28;3.20;;;3.00;;
4748;SDS011;2388;53.582;9.962;2023-08-12T04:49:54;3.20;;;3.00;;
4748;SDS011;2388;53.582;9.962;2023-08-12T04:52:20;4.13;;;3.10;;
4748;SDS011;2388;53.582;9.962;2023-08-12T04:54:45;2.80;;;2.70;;
4748;SDS011;2388;53.582;9.962;2023-08-12T04:57:11;2.70;;;2.50;;
4748;SDS011;2388;53.582;9.962;2023-08-12T04:59:36;3.03;;;2.83;;
4748;SDS011;2388;53.582;9.962;2023-08-12T05:02:02;8.00;;;4.00;;
4748;SDS011;2388;53.582;9.962;2023-08-12T05:04:28;7.67;;;3.50;;
4748;SDS011;2388;53.582;9.962;2023-08-12T05:06:53;2.80;;;2.70;;
4748;SDS011;2388;53.582;9.962;2023-08-12T05:09:19;4.77;;;4.13;;
4748;SDS011;2388;53.582;9.962;2023-08-12T05:11:44;3.80;;;3.40;;
4748;SDS011;2388;53.582;9.962;2023-08-12T05:14:09;3.57;;;3.27;;
4748;SDS011;2388;53.582;9.962;2023-08-12T05:16:35;4.10;;;3.70;;
4748;SDS011;2388;53.582;9.962;2023-08-12T05:19:00;4.03;;;2.90;;
4748;SDS011;2388;53.582;9.962;2023-08-12T05:21:26;4.00;;;3.20;;
4748;SDS011;2388;53.582;9.962;2023-08-12T05:23:51;3.90;;;3.17;;
4748;SDS011;2388;53.582;9.962;2023-08-12T05:26:17;4.60;;;3.97;;
4748;SDS011;2388;53.582;9.962;2023-08-12T05:28:42;4.60;;;3.47;;
4748;SDS011;2388;53.582;9.962;2023-08-12T05:31:08;3.90;;;3.60;;
4748;SDS011;2388;53.582;9.962;2023-08-12T05:33:33;4.30;;;3.47;;
4748;SDS011;2388;53.582;9.962;2023-08-12T05:35:59;3.87;;;3.40;;
4748;SDS011;2388;53.582;9.962;2023-08-12T05:38:24;3.23;;;2.93;;
4748;SDS011;2388;53.582;9.962;2023-08-12T05:40:50;3.50;;;3.20;;
4748;SDS011;2388;53.582;9.962;2023-08-12T05:43:15;3.70;;;3.50;;
4748;SDS011;2388;53.582;9.962;2023-08-12T05:45:41;3.80;;;3.47;;
4748;SDS011;2388;53.582;9.962;2023-08-12T05:48:07;4.00;;;3.70;;
4748;SDS011;2388;53.582;9.962;2023-08-12T05:50:33;4.47;;;3.97;;
4748;SDS011;2388;53.582;9.962;2023-08-12T05:52:59;4.20;;;3.50;;
4748;SDS011;2388;53.582;9.962;2023-08-12T05:55:24;4.87;;;4.37;;
4748;SDS011;2388;53.582;9.962;2023-08-12T05:57:49;4.20;;;3.80;;
4748;SDS011;2388;53.582;9.962;2023-08-12T06:00:15;6.47;;;5.57;;
4748;SDS011;2388;53.582;9.962;2023-08-12T06:02:40;20.73;;;17.60;;
4748;SDS011;2388;53.582;9.962;2023-08-12T06:05:06;14.97;;;11.80;;
4748;SDS011;2388;53.582;9.962;2023-08-12T06:07:32;8.20;;;6.57;;
4748;SDS011;2388;53.582;9.962;2023-08-12T06:09:58;6.50;;;5.83;;
4748;SDS011;2388;53.582;9.962;2023-08-12T06:12:23;4.40;;;4.10;;
4748;SDS011;2388;53.582;9.962;2023-08-12T06:14:49;8.80;;;7.13;;
4748;SDS011;2388;53.582;9.962;2023-08-12T06:17:14;8.67;;;7.00;;
4748;SDS011;2388;53.582;9.962;2023-08-12T06:19:40;5.53;;;5.00;;
4748;SDS011;2388;53.582;9.962;2023-08-12T06:22:05;4.97;;;4.40;;
4748;SDS011;2388;53.582;9.962;2023-08-12T06:24:31;5.33;;;4.73;;
4748;SDS011;2388;53.582;9.962;2023-08-12T06:26:56;4.80;;;4.33;;
4748;SDS011;2388;53.582;9.962;2023-08-12T06:29:22;5.87;;;5.47;;
4748;SDS011;2388;53.582;9.962;2023-08-12T06:31:47;6.20;;;5.60;;
4748;SDS011;2388;53.582;9.962;2023-08-12T06:34:13;6.00;;;5.33;;
4748;SDS011;2388;53.582;9.962;2023-08-12T06:36:38;5.97;;;5.40;;
4748;SDS011;2388;53.582;9.962;2023-08-12T06:39:04;5.23;;;4.73;;
4748;SDS011;2388;53.582;9.962;2023-08-12T06:41:29;5.77;;;5.27;;
4748;SDS011;2388;53.582;9.962;2023-08-12T06:43:55;5.33;;;4.93;;
4748;SDS011;2388;53.582;9.962;2023-08-12T06:46:21;5.70;;;5.20;;
4748;SDS011;2388;53.582;9.962;2023-08-12T06:48:46;5.90;;;5.40;;
4748;SDS011;2388;53.582;9.962;2023-08-12T06:51:12;6.27;;;5.67;;
4748;SDS011;2388;53.582;9.962;2023-08-12T06:53:38;6.67;;;5.90;;
4748;SDS011;2388;53.582;9.962;2023-08-12T06:56:04;7.57;;;6.87;;
4748;SDS011;2388;53.582;9.962;2023-08-12T06:58:29;6.00;;;5.60;;
4748;SDS011;2388;53.582;9.962;2023-08-12T07:00:55;6.33;;;5.73;;
4748;SDS011;2388;53.582;9.962;2023-08-12T07:03:21;8.77;;;5.90;;
4748;SDS011;2388;53.582;9.962;2023-08-12T07:05:47;9.73;;;6.17;;
4748;SDS011;2388;53.582;9.962;2023-08-12T07:08:13;8.37;;;7.77;;
4748;SDS011;2388;53.582;9.962;2023-08-12T07:10:39;7.20;;;6.50;;
4748;SDS011;2388;53.582;9.962;2023-08-12T07:13:05;6.80;;;6.30;;
4748;SDS011;2388;53.582;9.962;2023-08-12T07:15:30;6.93;;;6.23;;
4748;SDS011;2388;53.582;9.962;2023-08-12T07:17:56;7.93;;;7.13;;
4748;SDS011;2388;53.582;9.962;2023-08-12T07:20:22;7.97;;;7.20;;
4748;SDS011;2388;53.582;9.962;2023-08-12T07:22:51;8.40;;;7.17;;
4748;SDS011;2388;53.582;9.962;2023-08-12T07:25:17;7.43;;;6.50;;
4748;SDS011;2388;53.582;9.962;2023-08-12T07:27:42;7.57;;;6.40;;
4748;SDS011;2388;53.582;9.962;2023-08-12T07:30:08;7.63;;;6.90;;
4748;SDS011;2388;53.582;9.962;2023-08-12T07:32:35;6.73;;;6.23;;
4748;SDS011;2388;53.582;9.962;2023-08-12T07:35:01;10.50;;;7.87;;
4748;SDS011;2388;53.582;9.962;2023-08-12T07:37:28;7.07;;;6.47;;
4748;SDS011;2388;53.582;9.962;2023-08-12T07:39:54;8.40;;;7.60;;
4748;SDS011;2388;53.582;9.962;2023-08-12T07:42:19;9.10;;;7.10;;
4748;SDS011;2388;53.582;9.962;2023-08-12T07:44:45;7.70;;;6.47;;
4748;SDS011;2388;53.582;9.962;2023-08-12T07:47:11;7.33;;;6.70;;
4748;SDS011;2388;53.582;9.962;2023-08-12T07:49:36;10.07;;;7.87;;
4748;SDS011;2388;53.582;9.962;2023-08-12T07:52:02;7.60;;;6.90;;
4748;SDS011;2388;53.582;9.962;2023-08-12T07:54:28;7.70;;;5.30;;
4748;SDS011;2388;53.582;9.962;2023-08-12T07:56:53;8.37;;;7.23;;
4748;SDS011;2388;53.582;9.962;2023-08-12T07:59:19;12.37;;;9.87;;
4748;SDS011;2388;53.582;9.962;2023-08-12T08:01:45;12.60;;;10.70;;
4748;SDS011;2388;53.582;9.962;2023-08-12T08:04:11;8.50;;;7.47;;
4748;SDS011;2388;53.582;9.962;2023-08-12T08:06:36;8.40;;;7.70;;
4748;SDS011;2388;53.582;9.962;2023-08-12T08:09:02;9.80;;;8.03;;
4748;SDS011;2388;53.582;9.962;2023-08-12T08:11:29;7.03;;;6.43;;
4748;SDS011;2388;53.582;9.962;2023-08-12T08:13:55;7.90;;;7.20;;
4748;SDS011;2388;53.582;9.962;2023-08-12T08:16:20;7.43;;;6.80;;
4748;SDS011;2388;53.582;9.962;2023-08-12T08:18:46;8.20;;;6.77;;
4748;SDS011;2388;53.582;9.962;2023-08-12T08:21:11;9.23;;;8.00;;
4748;SDS011;2388;53.582;9.962;2023-08-12T08:23:37;12.90;;;8.50;;
4748;SDS011;2388;53.582;9.962;2023-08-12T08:26:05;10.43;;;9.10;;
4748;SDS011;2388;53.582;9.962;2023-08-12T08:28:31;11.20;;;8.30;;
4748;SDS011;2388;53.582;9.962;2023-08-12T08:30:57;9.20;;;8.40;;
4748;SDS011;2388;53.582;9.962;2023-08-12T08:33:23;10.47;;;9.47;;
4748;SDS011;2388;53.582;9.962;2023-08-12T08:35:49;9.60;;;8.20;;
4748;SDS011;2388;53.582;9.962;2023-08-12T08:38:15;10.87;;;9.73;;
4748;SDS011;2388;53.582;9.962;2023-08-12T08:40:41;9.50;;;8.70;;
4748;SDS011;2388;53.582;9.962;2023-08-12T08:43:07;9.57;;;8.63;;
4748;SDS011;2388;53.582;9.962;2023-08-12T08:45:33;15.77;;;8.77;;
4748;SDS011;2388;53.582;9.962;2023-08-12T08:47:59;8.93;;;8.10;;
4748;SDS011;2388;53.582;9.962;2023-08-12T08:50:27;16.77;;;8.40;;
4748;SDS011;2388;53.582;9.962;2023-08-12T08:52:54;12.10;;;8.40;;
4748;SDS011;2388;53.582;9.962;2023-08-12T08:55:21;11.77;;;8.97;;
4748;SDS011;2388;53.582;9.962;2023-08-12T08:57:47;8.17;;;7.00;;
4748;SDS011;2388;53.582;9.962;2023-08-12T09:00:15;7.83;;;7.13;;
4748;SDS011;2388;53.582;9.962;2023-08-12T09:02:42;12.33;;;8.33;;
4748;SDS011;2388;53.582;9.962;2023-08-12T09:05:09;8.40;;;7.60;;
4748;SDS011;2388;53.582;9.962;2023-08-12T09:07:37;7.70;;;6.73;;
4748;SDS011;2388;53.582;9.962;2023-08-12T09:10:05;6.20;;;5.70;;
4748;SDS011;2388;53.582;9.962;2023-08-12T09:12:32;10.00;;;6.60;;
4748;SDS011;2388;53.582;9.962;2023-08-12T09:14:58;5.60;;;5.13;;
4748;SDS011;2388;53.582;9.962;2023-08-12T09:17:24;5.73;;;5.27;;
4748;SDS011;2388;53.582;9.962;2023-08-12T09:19:50;7.60;;;7.00;;
4748;SDS011;2388;53.582;9.962;2023-08-12T09:22:15;8.37;;;6.87;;
4748;SDS011;2388;53.582;9.962;2023-08-12T09:24:43;7.60;;;6.90;;
4748;SDS011;2388;53.582;9.962;2023-08-12T09:27:09;9.07;;;8.17;;
4748;SDS011;2388;53.582;9.962;2023-08-12T09:29:35;8.87;;;7.13;;
4748;SDS011;2388;53.582;9.962;2023-08-12T09:32:13;8.00;;;7.20;;
4748;SDS011;2388;53.582;9.962;2023-08-12T09:34:47;8.70;;;7.80;;
4748;SDS011;2388;53.582;9.962;2023-08-12T09:37:20;9.23;;;7.30;;
4748;SDS011;2388;53.582;9.962;2023-08-12T09:39:47;6.80;;;6.27;;
4748;SDS011;2388;53.582;9.962;2023-08-12T09:42:13;6.20;;;5.60;;
4748;SDS011;2388;53.582;9.962;2023-08-12T09:44:40;5.60;;;4.97;;
4748;SDS011;2388;53.582;9.962;2023-08-12T09:47:06;6.53;;;5.27;;
4748;SDS011;2388;53.582;9.962;2023-08-12T09:49:33;6.40;;;5.10;;
4748;SDS011;2388;53.582;9.962;2023-08-12T09:52:00;7.97;;;7.30;;
4748;SDS011;2388;53.582;9.962;2023-08-12T09:54:27;10.20;;;7.40;;
4748;SDS011;2388;53.582;9.962;2023-08-12T09:56:59;7.27;;;6.40;;
4748;SDS011;2388;53.582;9.962;2023-08-12T09:59:32;6.80;;;6.10;;
4748;SDS011;2388;53.582;9.962;2023-08-12T10:02:02;6.07;;;5.47;;
4748;SDS011;2388;53.582;9.962;2023-08-12T10:04:38;7.13;;;6.30;;
4748;SDS011;2388;53.582;9.962;2023-08-12T10:07:06;8.13;;;7.43;;
4748;SDS011;2388;53.582;9.962;2023-08-12T10:09:34;10.90;;;7.80;;
4748;SDS011;2388;53.582;9.962;2023-08-12T10:12:00;7.37;;;6.60;;
4748;SDS011;2388;53.582;9.962;2023-08-12T10:14:26;7.77;;;6.97;;
4748;SDS011;2388;53.582;9.962;2023-08-12T10:16:53;7.40;;;6.70;;
4748;SDS011;2388;53.582;9.962;2023-08-12T10:19:19;8.23;;;7.00;;
4748;SDS011;2388;53.582;9.962;2023-08-12T10:21:47;11.67;;;9.90;;
4748;SDS011;2388;53.582;9.962;2023-08-12T10:24:14;9.00;;;7.63;;
4748;SDS011;2388;53.582;9.962;2023-08-12T10:26:42;10.57;;;8.73;;
4748;SDS011;2388;53.582;9.962;2023-08-12T10:29:07;14.90;;;11.80;;
4748;SDS011;2388;53.582;9.962;2023-08-12T10:31:33;15.80;;;12.80;;
4748;SDS011;2388;53.582;9.962;2023-08-12T10:33:59;16.77;;;11.80;;
4748;SDS011;2388;53.582;9.962;2023-08-12T10:36:25;10.30;;;9.40;;
4748;SDS011;2388;53.582;9.962;2023-08-12T10:38:51;22.33;;;16.33;;
4748;SDS011;2388;53.582;9.962;2023-08-12T10:41:21;32.50;;;26.47;;
4748;SDS011;2388;53.582;9.962;2023-08-12T10:43:55;28.50;;;22.83;;
4748;SDS011;2388;53.582;9.962;2023-08-12T10:49:01;28.67;;;22.50;;
4748;SDS011;2388;53.582;9.962;2023-08-12T10:54:27;18.80;;;12.63;;
4748;SDS011;2388;53.582;9.962;2023-08-12T11:02:16;9.03;;;8.10;;
4748;SDS011;2388;53.582;9.962;2023-08-12T11:04:48;10.43;;;7.33;;
4748;SDS011;2388;53.582;9.962;2023-08-12T11:07:18;8.97;;;8.07;;
4748;SDS011;2388;53.582;9.962;2023-08-12T11:09:45;9.13;;;8.00;;
4748;SDS011;2388;53.582;9.962;2023-08-12T11:12:17;7.70;;;7.00;;
4748;SDS011;2388;53.582;9.962;2023-08-12T11:14:47;11.30;;;10.20;;
4748;SDS011;2388;53.582;9.962;2023-08-12T11:17:14;9.57;;;8.37;;
4748;SDS011;2388;53.582;9.962;2023-08-12T11:19:41;7.60;;;6.90;;
4748;SDS011;2388;53.582;9.962;2023-08-12T11:22:07;10.43;;;7.23;;
4748;SDS011;2388;53.582;9.962;2023-08-12T11:24:33;6.77;;;6.00;;
4748;SDS011;2388;53.582;9.962;2023-08-12T11:27:00;6.97;;;6.27;;
4748;SDS011;2388;53.582;9.962;2023-08-12T11:29:26;8.10;;;5.10;;
4748;SDS011;2388;53.582;9.962;2023-08-12T11:31:52;5.63;;;5.17;;
4748;SDS011;2388;53.582;9.962;2023-08-12T11:34:18;6.90;;;4.73;;
4748;SDS011;2388;53.582;9.962;2023-08-12T11:36:43;4.97;;;4.57;;
4748;SDS011;2388;53.582;9.962;2023-08-12T11:39:09;4.93;;;4.63;;
4748;SDS011;2388;53.582;9.962;2023-08-12T11:41:34;5.50;;;5.10;;
4748;SDS011;2388;53.582;9.962;2023-08-12T11:44:00;4.57;;;4.23;;
4748;SDS011;2388;53.582;9.962;2023-08-12T11:46:25;4.60;;;4.30;;
4748;SDS011;2388;53.582;9.962;2023-08-12T11:48:51;5.60;;;5.00;;
4748;SDS011;2388;53.582;9.962;2023-08-12T11:51:16;9.67;;;8.70;;
4748;SDS011;2388;53.582;9.962;2023-08-12T11:53:42;10.20;;;8.47;;
4748;SDS011;2388;53.582;9.962;2023-08-12T11:56:08;14.87;;;12.23;;
4748;SDS011;2388;53.582;9.962;2023-08-12T11:58:36;8.20;;;7.50;;
4748;SDS011;2388;53.582;9.962;2023-08-12T12:01:02;9.43;;;6.90;;
4748;SDS011;2388;53.582;9.962;2023-08-12T12:03:28;11.73;;;7.37;;
4748;SDS011;2388;53.582;9.962;2023-08-12T12:05:55;13.27;;;9.03;;
4748;SDS011;2388;53.582;9.962;2023-08-12T12:08:21;9.40;;;7.70;;
4748;SDS011;2388;53.582;9.962;2023-08-12T12:10:47;10.33;;;6.73;;
4748;SDS011;2388;53.582;9.962;2023-08-12T12:13:12;9.30;;;6.93;;
4748;SDS011;2388;53.582;9.962;2023-08-12T12:15:42;6.43;;;5.83;;
4748;SDS011;2388;53.582;9.962;2023-08-12T12:18:09;6.43;;;5.50;;
4748;SDS011;2388;53.582;9.962;2023-08-12T12:20:36;6.67;;;6.03;;
4748;SDS011;2388;53.582;9.962;2023-08-12T12:23:05;4.90;;;4.60;;
4748;SDS011;2388;53.582;9.962;2023-08-12T12:25:31;14.80;;;13.30;;
4748;SDS011;2388;53.582;9.962;2023-08-12T12:27:57;9.03;;;8.13;;
4748;SDS011;2388;53.582;9.962;2023-08-12T12:30:22;7.00;;;5.90;;
4748;SDS011;2388;53.582;9.962;2023-08-12T12:32:48;5.03;;;4.63;;
4748;SDS011;2388;53.582;9.962;2023-08-12T12:35:13;6.17;;;5.37;;
4748;SDS011;2388;53.582;9.962;2023-08-12T12:37:39;3.93;;;3.60;;
4748;SDS011;2388;53.582;9.962;2023-08-12T12:40:05;5.23;;;4.70;;
4748;SDS011;2388;53.582;9.962;2023-08-12T12:42:32;3.70;;;3.50;;
4748;SDS011;2388;53.582;9.962;2023-08-12T12:44:57;4.20;;;3.80;;
4748;SDS011;2388;53.582;9.962;2023-08-12T12:47:23;4.80;;;3.97;;
4748;SDS011;2388;53.582;9.962;2023-08-12T12:49:48;6.10;;;5.60;;
4748;SDS011;2388;53.582;9.962;2023-08-12T12:52:14;21.60;;;17.57;;
4748;SDS011;2388;53.582;9.962;2023-08-12T12:54:39;18.80;;;16.80;;
4748;SDS011;2388;53.582;9.962;2023-08-12T12:57:05;8.80;;;7.97;;
4748;SDS011;2388;53.582;9.962;2023-08-12T12:59:30;5.80;;;5.40;;
4748;SDS011;2388;53.582;9.962;2023-08-12T13:01:56;4.87;;;4.37;;
4748;SDS011;2388;53.582;9.962;2023-08-12T13:04:22;4.23;;;3.93;;
4748;SDS011;2388;53.582;9.962;2023-08-12T13:06:47;5.23;;;4.67;;
4748;SDS011;2388;53.582;9.962;2023-08-12T13:09:13;4.80;;;4.27;;
4748;SDS011;2388;53.582;9.962;2023-08-12T13:11:38;4.37;;;4.07;;
4748;SDS011;2388;53.582;9.962;2023-08-12T13:14:03;5.40;;;4.90;;
4748;SDS011;2388;53.582;9.962;2023-08-12T13:16:29;5.33;;;4.93;;
4748;SDS011;2388;53.582;9.962;2023-08-12T13:18:56;5.40;;;4.63;;
4748;SDS011;2388;53.582;9.962;2023-08-12T13:21:23;4.87;;;4.57;;
4748;SDS011;2388;53.582;9.962;2023-08-12T13:23:49;19.50;;;14.17;;
4748;SDS011;2388;53.582;9.962;2023-08-12T13:26:15;32.23;;;26.03;;
4748;SDS011;2388;53.582;9.962;2023-08-12T13:28:40;20.37;;;18.00;;
4748;SDS011;2388;53.582;9.962;2023-08-12T13:31:06;10.67;;;9.67;;
4748;SDS011;2388;53.582;9.962;2023-08-12T13:33:31;7.87;;;7.17;;
4748;SDS011;2388;53.582;9.962;2023-08-12T13:35:57;7.00;;;6.40;;
4748;SDS011;2388;53.582;9.962;2023-08-12T13:38:22;6.20;;;5.70;;
4748;SDS011;2388;53.582;9.962;2023-08-12T13:40:48;5.50;;;4.97;;
4748;SDS011;2388;53.582;9.962;2023-08-12T13:43:14;6.93;;;6.23;;
4748;SDS011;2388;53.582;9.962;2023-08-12T13:45:39;6.93;;;6.37;;
4748;SDS011;2388;53.582;9.962;2023-08-12T13:48:05;10.23;;;7.97;;
4748;SDS011;2388;53.582;9.962;2023-08-12T13:50:30;10.17;;;7.20;;
4748;SDS011;2388;53.582;9.962;2023-08-12T13:52:57;7.40;;;6.77;;
4748;SDS011;2388;53.582;9.962;2023-08-12T13:55:23;11.33;;;8.83;;
4748;SDS011;2388;53.582;9.962;2023-08-12T13:57:49;9.20;;;7.73;;
4748;SDS011;2388;53.582;9.962;2023-08-12T14:00:15;9.73;;;8.80;;
4748;SDS011;2388;53.582;9.962;2023-08-12T14:02:40;8.80;;;7.30;;
4748;SDS011;2388;53.582;9.962;2023-08-12T14:05:06;9.90;;;8.83;;
4748;SDS011;2388;53.582;9.962;2023-08-12T14:07:32;11.80;;;10.10;;
4748;SDS011;2388;53.582;9.962;2023-08-12T14:09:58;12.50;;;9.93;;
4748;SDS011;2388;53.582;9.962;2023-08-12T14:12:24;14.00;;;11.67;;
4748;SDS011;2388;53.582;9.962;2023-08-12T14:14:50;11.20;;;10.10;;
4748;SDS011;2388;53.582;9.962;2023-08-12T14:17:15;11.37;;;10.37;;
4748;SDS011;2388;53.582;9.962;2023-08-12T14:19:43;10.63;;;7.40;;
4748;SDS011;2388;53.582;9.962;2023-08-12T14:22:12;9.20;;;8.50;;
4748;SDS011;2388;53.582;9.962;2023-08-12T14:24:38;7.90;;;7.40;;
4748;SDS011;2388;53.582;9.962;2023-08-12T14:27:03;9.00;;;8.10;;
4748;SDS011;2388;53.582;9.962;2023-08-12T14:29:29;8.30;;;7.57;;
4748;SDS011;2388;53.582;9.962;2023-08-12T14:31:55;7.80;;;7.20;;
4748;SDS011;2388;53.582;9.962;2023-08-12T14:34:20;7.60;;;6.90;;
4748;SDS011;2388;53.582;9.962;2023-08-12T14:36:45;6.40;;;5.90;;
4748;SDS011;2388;53.582;9.962;2023-08-12T14:39:11;7.57;;;6.83;;
4748;SDS011;2388;53.582;9.962;2023-08-12T14:41:36;7.40;;;5.50;;
4748;SDS011;2388;53.582;9.962;2023-08-12T14:44:02;7.30;;;6.60;;
4748;SDS011;2388;53.582;9.962;2023-08-12T14:46:28;7.07;;;6.47;;
4748;SDS011;2388;53.582;9.962;2023-08-12T14:48:53;7.73;;;6.90;;
4748;SDS011;2388;53.582;9.962;2023-08-12T14:51:21;11.10;;;9.77;;
4748;SDS011;2388;53.582;9.962;2023-08-12T14:53:47;9.33;;;7.80;;
4748;SDS011;2388;53.582;9.962;2023-08-12T14:56:13;9.50;;;8.70;;
4748;SDS011;2388;53.582;9.962;2023-08-12T14:58:38;8.20;;;7.40;;
4748;SDS011;2388;53.582;9.962;2023-08-12T15:01:04;8.67;;;7.53;;
4748;SDS011;2388;53.582;9.962;2023-08-12T15:03:29;9.60;;;8.70;;
4748;SDS011;2388;53.582;9.962;2023-08-12T15:06:01;10.47;;;9.47;;
4748;SDS011;2388;53.582;9.962;2023-08-12T15:08:28;8.60;;;7.90;;
4748;SDS011;2388;53.582;9.962;2023-08-12T15:10:54;7.20;;;6.70;;
4748;SDS011;2388;53.582;9.962;2023-08-12T15:13:20;10.03;;;9.13;;
4748;SDS011;2388;53.582;9.962;2023-08-12T15:15:46;11.17;;;7.23;;
4748;SDS011;2388;53.582;9.962;2023-08-12T15:18:12;10.63;;;9.53;;
4748;SDS011;2388;53.582;9.962;2023-08-12T15:20:37;9.20;;;8.27;;